createdAt,value
2018-11-10T00:00:42.841Z,26.90
2018-11-10T00:03:10.876Z,25.60
2018-11-10T00:05:38.803Z,25.73
2018-11-10T00:08:06.811Z,24.53
2018-11-10T00:10:34.667Z,25.60
2018-11-10T00:13:02.609Z,24.50
2018-11-10T00:15:30.511Z,25.47
2018-11-10T00:17:58.461Z,24.23
2018-11-10T00:20:26.385Z,25.90
2018-11-10T00:22:54.280Z,24.07
2018-11-10T00:25:22.180Z,25.43
2018-11-10T00:27:50.108Z,22.87
2018-11-10T00:30:18.734Z,24.23
2018-11-10T00:32:47.067Z,24.37
2018-11-10T00:35:15.047Z,22.67
2018-11-10T00:37:43.198Z,22.43
2018-11-10T00:40:15.111Z,25.00
2018-11-10T00:42:43.479Z,22.73
2018-11-10T00:45:11.349Z,24.20
2018-11-10T00:47:39.412Z,24.57
2018-11-10T00:50:07.775Z,23.83
2018-11-10T00:52:35.843Z,24.47
2018-11-10T00:55:03.941Z,23.00
2018-11-10T00:57:31.891Z,23.53
2018-11-10T00:59:59.777Z,24.53
2018-11-10T01:02:27.751Z,22.47
2018-11-10T01:04:55.609Z,22.47
2018-11-10T01:07:23.545Z,23.10
2018-11-10T01:09:51.564Z,22.23
2018-11-10T01:12:19.490Z,22.63
2018-11-10T01:14:47.375Z,22.93
2018-11-10T01:17:15.246Z,21.40
2018-11-10T01:19:43.209Z,22.23
2018-11-10T01:22:11.155Z,22.23
2018-11-10T01:24:39.040Z,21.73
2018-11-10T01:27:06.928Z,22.60
2018-11-10T01:29:34.842Z,23.40
2018-11-10T01:32:02.741Z,22.33
2018-11-10T01:34:30.683Z,23.10
2018-11-10T01:36:58.679Z,22.17
2018-11-10T01:39:26.554Z,22.97
2018-11-10T01:41:55.982Z,22.50
2018-11-10T01:44:23.995Z,22.07
2018-11-10T01:46:51.890Z,21.30
2018-11-10T01:49:19.855Z,22.03
2018-11-10T01:51:54.599Z,22.70
2018-11-10T01:54:22.555Z,22.50
2018-11-10T01:56:50.427Z,22.07
2018-11-10T01:59:18.383Z,21.70
2018-11-10T02:01:46.276Z,20.40
2018-11-10T02:04:14.142Z,21.50
2018-11-10T02:06:42.260Z,21.83
2018-11-10T02:09:10.495Z,22.23
2018-11-10T02:11:38.435Z,21.27
2018-11-10T02:14:06.435Z,21.37
2018-11-10T02:16:34.451Z,21.97
2018-11-10T02:19:02.319Z,23.27
2018-11-10T02:21:30.194Z,21.37
2018-11-10T02:23:58.107Z,22.07
2018-11-10T02:26:25.998Z,20.87
2018-11-10T02:28:53.893Z,20.87
2018-11-10T02:31:21.814Z,20.20
2018-11-10T02:33:49.723Z,21.67
2018-11-10T02:36:17.607Z,20.33
2018-11-10T02:38:45.528Z,20.37
2018-11-10T02:41:13.427Z,20.70
2018-11-10T02:43:41.316Z,19.53
2018-11-10T02:46:09.189Z,20.30
2018-11-10T02:48:37.107Z,20.00
2018-11-10T02:51:05.091Z,21.83
2018-11-10T02:53:32.985Z,19.77
2018-11-10T02:56:00.893Z,22.00
2018-11-10T02:58:28.779Z,21.07
2018-11-10T03:00:56.646Z,20.57
2018-11-10T03:03:24.547Z,20.07
2018-11-10T03:05:52.430Z,20.47
2018-11-10T03:08:20.330Z,20.77
2018-11-10T03:10:48.239Z,20.83
2018-11-10T03:13:16.099Z,20.13
2018-11-10T03:15:44.009Z,19.60
2018-11-10T03:18:11.903Z,21.43
2018-11-10T03:20:39.780Z,22.33
2018-11-10T03:23:07.656Z,22.50
2018-11-10T03:25:35.530Z,21.63
2018-11-10T03:28:03.425Z,21.87
2018-11-10T03:30:31.568Z,22.10
2018-11-10T03:32:59.445Z,21.43
2018-11-10T03:35:27.313Z,21.47
2018-11-10T03:37:55.196Z,21.37
2018-11-10T03:42:57.427Z,21.73
2018-11-10T03:45:25.323Z,22.73
2018-11-10T03:47:53.199Z,22.63
2018-11-10T03:50:21.076Z,22.83
2018-11-10T03:52:48.984Z,21.73
2018-11-10T03:55:16.875Z,23.60
2018-11-10T03:57:44.798Z,23.80
2018-11-10T04:00:14.615Z,22.47
2018-11-10T04:02:44.691Z,21.73
2018-11-10T04:05:13.022Z,25.63
2018-11-10T04:07:41.939Z,26.00
2018-11-10T04:10:10.024Z,23.23
2018-11-10T04:12:37.959Z,24.07
2018-11-10T04:15:06.042Z,22.10
2018-11-10T04:17:33.927Z,23.50
2018-11-10T04:20:01.844Z,23.27
2018-11-10T04:22:33.467Z,22.83
2018-11-10T04:25:01.940Z,23.63
2018-11-10T04:27:30.037Z,23.67
2018-11-10T04:29:57.951Z,23.90
2018-11-10T04:32:25.837Z,21.87
2018-11-10T04:34:53.713Z,23.83
2018-11-10T04:37:21.576Z,23.03
2018-11-10T04:39:49.497Z,23.67
2018-11-10T04:42:17.394Z,23.67
2018-11-10T04:44:45.262Z,24.60
2018-11-10T04:47:13.215Z,23.27
2018-11-10T04:49:41.093Z,24.43
2018-11-10T04:52:09.455Z,23.30
2018-11-10T04:54:37.380Z,22.30
2018-11-10T04:57:05.438Z,24.20
2018-11-10T04:59:33.274Z,24.83
2018-11-10T05:02:01.194Z,24.37
2018-11-10T05:04:29.102Z,24.57
2018-11-10T05:06:57.067Z,23.10
2018-11-10T05:09:24.976Z,22.47
2018-11-10T05:11:52.874Z,25.47
2018-11-10T05:14:20.772Z,23.83
2018-11-10T05:16:48.653Z,24.77
2018-11-10T05:19:16.569Z,23.37
2018-11-10T05:21:44.456Z,25.60
2018-11-10T05:24:12.339Z,23.87
2018-11-10T05:26:40.199Z,22.17
2018-11-10T05:29:08.292Z,24.60
2018-11-10T05:31:36.226Z,23.73
2018-11-10T05:34:04.245Z,24.57
2018-11-10T05:36:32.136Z,36.53
2018-11-10T05:39:00.585Z,26.27
2018-11-10T05:41:28.463Z,25.97
2018-11-10T05:43:56.367Z,24.20
2018-11-10T05:46:24.259Z,25.27
2018-11-10T05:48:52.143Z,24.93
2018-11-10T05:51:20.071Z,25.67
2018-11-10T05:53:48.113Z,23.53
2018-11-10T05:56:15.986Z,25.30
2018-11-10T05:58:43.880Z,25.07
2018-11-10T06:01:11.748Z,24.57
2018-11-10T06:03:39.628Z,24.90
2018-11-10T06:06:07.847Z,24.30
2018-11-10T06:08:35.771Z,24.93
2018-11-10T06:11:03.723Z,25.10
2018-11-10T06:13:31.619Z,26.07
2018-11-10T06:15:59.566Z,27.50
2018-11-10T06:18:27.428Z,27.50
2018-11-10T06:20:56.496Z,29.07
2018-11-10T06:23:24.406Z,27.23
2018-11-10T06:25:52.408Z,30.07
2018-11-10T06:28:20.239Z,27.57
2018-11-10T06:30:48.121Z,30.47
2018-11-10T06:33:16.007Z,29.50
2018-11-10T06:35:43.875Z,28.13
2018-11-10T06:38:11.771Z,29.17
2018-11-10T06:40:39.647Z,30.20
2018-11-10T06:43:07.572Z,29.67
2018-11-10T06:45:35.414Z,28.97
2018-11-10T06:48:13.055Z,29.03
2018-11-10T06:50:40.971Z,31.27
2018-11-10T06:53:08.850Z,32.73
2018-11-10T06:55:36.724Z,30.40
2018-11-10T06:58:04.903Z,31.83
2018-11-10T07:00:32.796Z,30.20
2018-11-10T07:03:00.665Z,31.67
2018-11-10T07:05:28.601Z,30.47
2018-11-10T07:07:56.444Z,30.53
2018-11-10T07:10:25.692Z,29.70
2018-11-10T07:12:53.595Z,33.17
2018-11-10T07:15:21.471Z,30.73
2018-11-10T07:17:49.387Z,31.23
2018-11-10T07:20:17.247Z,30.47
2018-11-10T07:22:45.444Z,29.03
2018-11-10T07:25:13.413Z,29.37
2018-11-10T07:27:41.282Z,29.60
2018-11-10T07:30:10.383Z,26.23
2018-11-10T07:32:38.390Z,26.30
2018-11-10T07:35:06.687Z,25.33
2018-11-10T07:37:34.624Z,27.73
2018-11-10T07:40:02.487Z,32.40
2018-11-10T07:42:30.383Z,35.37
2018-11-10T07:44:58.278Z,27.43
2018-11-10T07:47:26.160Z,25.97
2018-11-10T07:49:54.035Z,25.53
2018-11-10T07:52:21.976Z,26.47
2018-11-10T07:54:50.007Z,27.63
2018-11-10T07:57:17.892Z,27.23
2018-11-10T07:59:45.760Z,26.53
2018-11-10T08:02:13.718Z,26.67
2018-11-10T08:04:41.723Z,24.77
2018-11-10T08:07:09.651Z,25.40
2018-11-10T08:09:37.627Z,26.57
2018-11-10T08:12:05.815Z,26.60
2018-11-10T08:14:33.691Z,25.83
2018-11-10T08:17:01.623Z,27.30
2018-11-10T08:19:29.552Z,25.27
2018-11-10T08:21:57.491Z,27.17
2018-11-10T08:24:25.397Z,27.67
2018-11-10T08:26:53.316Z,26.20
2018-11-10T08:29:21.199Z,26.10
2018-11-10T08:31:49.119Z,25.60
2018-11-10T08:34:17.045Z,24.03
2018-11-10T08:36:44.963Z,43.77
2018-11-10T08:39:13.926Z,28.20
2018-11-10T08:41:42.298Z,26.93
2018-11-10T08:44:10.334Z,26.13
2018-11-10T08:46:38.298Z,26.97
2018-11-10T08:49:06.286Z,25.23
2018-11-10T08:51:35.584Z,26.43
2018-11-10T08:54:03.543Z,27.50
2018-11-10T08:56:31.592Z,24.20
2018-11-10T08:58:59.512Z,26.03
2018-11-10T09:01:27.419Z,24.37
2018-11-10T09:03:55.323Z,25.80
2018-11-10T09:06:23.279Z,26.03
2018-11-10T09:08:51.221Z,25.60
2018-11-10T09:11:19.167Z,24.00
2018-11-10T09:13:47.087Z,25.40
2018-11-10T09:16:15.031Z,24.90
2018-11-10T09:18:42.919Z,24.83
2018-11-10T09:21:10.861Z,25.33
2018-11-10T09:23:38.760Z,24.70
2018-11-10T09:26:06.687Z,25.07
2018-11-10T09:28:34.572Z,26.20
2018-11-10T09:31:02.583Z,26.23
2018-11-10T09:33:30.362Z,24.17
2018-11-10T09:35:58.260Z,24.10
2018-11-10T09:38:26.178Z,23.13
2018-11-10T09:40:54.064Z,22.20
2018-11-10T09:43:21.944Z,22.97
2018-11-10T09:45:49.835Z,22.77
2018-11-10T09:48:17.731Z,24.47
2018-11-10T09:50:45.752Z,23.67
2018-11-10T09:53:13.659Z,24.57
2018-11-10T09:55:41.558Z,22.57
2018-11-10T09:58:09.460Z,23.07
2018-11-10T10:00:37.350Z,23.50
2018-11-10T10:03:05.235Z,24.80
2018-11-10T10:05:33.119Z,24.67
2018-11-10T10:08:00.993Z,22.73
2018-11-10T10:10:28.930Z,23.90
2018-11-10T10:12:56.911Z,25.17
2018-11-10T10:15:24.782Z,22.33
2018-11-10T10:17:52.858Z,23.90
2018-11-10T10:20:20.863Z,23.47
2018-11-10T10:22:49.395Z,21.93
2018-11-10T10:25:17.866Z,20.80
2018-11-10T10:27:46.571Z,20.90
2018-11-10T10:30:16.175Z,21.37
2018-11-10T10:32:45.111Z,21.07
2018-11-10T10:35:13.355Z,20.87
2018-11-10T10:37:41.313Z,22.00
2018-11-10T10:40:10.294Z,21.70
2018-11-10T10:42:38.338Z,18.97
2018-11-10T10:45:06.668Z,19.93
2018-11-10T10:47:34.554Z,21.20
2018-11-10T10:50:02.469Z,19.80
2018-11-10T10:52:30.352Z,19.93
2018-11-10T10:54:58.266Z,20.47
2018-11-10T10:57:26.151Z,18.83
2018-11-10T10:59:55.202Z,21.47
2018-11-10T11:02:28.523Z,19.87
2018-11-10T11:04:58.727Z,19.93
2018-11-10T11:07:27.275Z,20.03
2018-11-10T11:09:55.189Z,20.63
2018-11-10T11:12:23.202Z,20.07
2018-11-10T11:14:51.195Z,20.80
2018-11-10T11:17:19.075Z,19.80
2018-11-10T11:19:47.039Z,19.10
2018-11-10T11:22:14.927Z,19.03
2018-11-10T11:24:42.795Z,19.90
2018-11-10T11:27:10.746Z,20.20
2018-11-10T11:29:38.669Z,18.30
2018-11-10T11:32:06.523Z,19.10
2018-11-10T11:34:34.506Z,19.03
2018-11-10T11:37:02.493Z,19.40
2018-11-10T11:39:30.388Z,20.40
2018-11-10T11:41:58.293Z,17.67
2018-11-10T11:44:27.368Z,19.93
2018-11-10T11:46:55.378Z,19.33
2018-11-10T11:49:23.240Z,19.23
2018-11-10T11:51:52.754Z,18.87
2018-11-10T11:54:20.778Z,17.73
2018-11-10T11:56:48.747Z,19.47
2018-11-10T11:59:16.635Z,19.07
2018-11-10T12:01:44.595Z,18.30
2018-11-10T12:04:13.056Z,17.53
2018-11-10T12:06:40.966Z,18.03
2018-11-10T12:09:09.751Z,18.13
2018-11-10T12:11:37.663Z,18.77
2018-11-10T12:14:05.630Z,18.33
2018-11-10T12:16:33.567Z,18.60
2018-11-10T12:19:01.488Z,18.77
2018-11-10T12:21:29.405Z,17.93
2018-11-10T12:23:57.321Z,19.17
2018-11-10T12:26:25.303Z,17.97
2018-11-10T12:28:53.197Z,17.70
2018-11-10T12:31:21.163Z,17.17
2018-11-10T12:33:49.127Z,16.00
2018-11-10T12:36:17.014Z,17.23
2018-11-10T12:38:45.011Z,17.10
2018-11-10T12:41:12.851Z,15.77
2018-11-10T12:43:40.733Z,17.97
2018-11-10T12:46:08.655Z,17.73
2018-11-10T12:48:36.555Z,16.93
2018-11-10T12:51:04.714Z,17.43
2018-11-10T12:53:32.603Z,19.97
2018-11-10T12:56:00.486Z,17.17
2018-11-10T12:58:28.406Z,16.17
2018-11-10T13:00:56.317Z,17.17
2018-11-10T13:03:24.193Z,16.27
2018-11-10T13:05:52.084Z,16.40
2018-11-10T13:08:20.058Z,17.13
2018-11-10T13:10:48.025Z,17.97
2018-11-10T13:13:15.965Z,15.93
2018-11-10T13:15:44.013Z,17.43
2018-11-10T13:18:12.039Z,16.83
2018-11-10T13:20:39.980Z,18.17
2018-11-10T13:23:07.980Z,16.43
2018-11-10T13:25:35.910Z,16.80
2018-11-10T13:28:03.903Z,17.47
2018-11-10T13:30:31.850Z,25.23
2018-11-10T13:32:59.932Z,20.60
2018-11-10T13:35:27.877Z,17.63
2018-11-10T13:37:55.944Z,17.63
2018-11-10T13:40:23.830Z,16.63
2018-11-10T13:42:51.731Z,19.53
2018-11-10T13:45:19.674Z,15.53
2018-11-10T13:47:47.530Z,22.10
2018-11-10T13:50:15.402Z,15.17
2018-11-10T13:52:43.840Z,16.27
2018-11-10T13:55:12.708Z,15.57
2018-11-10T13:57:40.802Z,15.57
2018-11-10T14:00:09.750Z,15.30
2018-11-10T14:02:37.704Z,15.33
2018-11-10T14:05:05.790Z,14.80
2018-11-10T14:07:33.728Z,16.87
2018-11-10T14:10:01.721Z,16.53
2018-11-10T14:12:29.785Z,16.23
2018-11-10T14:14:57.696Z,18.17
2018-11-10T14:17:25.636Z,16.83
2018-11-10T14:19:53.574Z,16.30
2018-11-10T14:22:21.462Z,35.67
2018-11-10T14:24:49.346Z,18.47
2018-11-10T14:27:17.294Z,15.83
2018-11-10T14:29:45.163Z,20.43
2018-11-10T14:32:13.131Z,17.27
2018-11-10T14:34:41.121Z,18.63
2018-11-10T14:37:09.448Z,18.63
2018-11-10T14:39:37.452Z,16.63
2018-11-10T14:42:05.426Z,15.57
2018-11-10T14:44:33.357Z,15.03
2018-11-10T14:47:01.248Z,17.93
2018-11-10T14:49:29.134Z,15.80
2018-11-10T14:51:58.335Z,16.63
2018-11-10T14:54:26.199Z,16.20
2018-11-10T14:56:54.134Z,15.60
2018-11-10T14:59:22.032Z,15.37
2018-11-10T15:01:49.923Z,15.97
2018-11-10T15:04:17.802Z,17.50
2018-11-10T15:06:45.702Z,16.07
2018-11-10T15:09:13.666Z,14.47
2018-11-10T15:11:41.603Z,16.57
2018-11-10T15:14:09.502Z,14.77
2018-11-10T15:16:37.443Z,16.07
2018-11-10T15:19:05.408Z,14.97
2018-11-10T15:21:33.312Z,13.57
2018-11-10T15:24:01.221Z,14.70
2018-11-10T15:26:29.706Z,13.80
2018-11-10T15:28:57.655Z,12.57
2018-11-10T15:31:25.625Z,12.77
2018-11-10T15:33:53.503Z,10.80
2018-11-10T15:36:21.453Z,11.40
2018-11-10T15:38:50.841Z,11.27
2018-11-10T15:41:18.826Z,11.10
2018-11-10T15:43:46.694Z,10.17
2018-11-10T15:46:14.647Z,10.83
2018-11-10T15:48:42.526Z,10.53
2018-11-10T15:51:10.531Z,9.93
2018-11-10T15:53:38.403Z,9.93
2018-11-10T15:56:06.511Z,9.30
2018-11-10T15:58:34.418Z,8.67
2018-11-10T16:01:02.380Z,7.67
2018-11-10T16:03:30.319Z,7.90
2018-11-10T16:05:58.344Z,7.37
2018-11-10T16:08:26.269Z,8.10
2018-11-10T16:10:54.153Z,8.37
2018-11-10T16:13:22.070Z,7.83
2018-11-10T16:15:49.959Z,6.97
2018-11-10T16:18:17.858Z,7.53
2018-11-10T16:20:45.787Z,6.33
2018-11-10T16:23:13.722Z,7.10
2018-11-10T16:25:41.630Z,5.63
2018-11-10T16:28:09.602Z,5.90
2018-11-10T16:30:37.504Z,5.97
2018-11-10T16:33:05.574Z,5.67
2018-11-10T16:35:33.467Z,5.40
2018-11-10T16:38:01.386Z,5.57
2018-11-10T16:40:29.280Z,5.23
2018-11-10T16:42:57.195Z,5.60
2018-11-10T16:45:25.073Z,5.40
2018-11-10T16:47:52.975Z,5.43
2018-11-10T16:50:20.871Z,5.20
2018-11-10T16:52:48.752Z,5.03
2018-11-10T16:55:16.710Z,5.00
2018-11-10T16:57:44.658Z,5.10
2018-11-10T17:00:14.025Z,4.87
2018-11-10T17:02:42.183Z,5.10
2018-11-10T17:05:10.223Z,5.03
2018-11-10T17:07:38.546Z,4.73
2018-11-10T17:10:07.450Z,5.00
2018-11-10T17:12:35.403Z,4.40
2018-11-10T17:15:03.506Z,4.07
2018-11-10T17:17:31.447Z,4.33
2018-11-10T17:19:59.700Z,4.30
2018-11-10T17:22:27.700Z,4.03
2018-11-10T17:24:55.480Z,4.50
2018-11-10T17:27:23.373Z,3.93
2018-11-10T17:29:51.272Z,3.90
2018-11-10T17:32:19.170Z,3.77
2018-11-10T17:34:47.043Z,4.90
2018-11-10T17:37:14.955Z,4.60
2018-11-10T17:39:49.502Z,6.50
2018-11-10T17:42:17.339Z,5.77
2018-11-10T17:44:45.150Z,4.10
2018-11-10T17:47:13.111Z,4.30
2018-11-10T17:49:40.972Z,4.40
2018-11-10T17:52:08.957Z,4.00
2018-11-10T17:54:36.761Z,3.77
2018-11-10T17:57:04.704Z,4.43
2018-11-10T17:59:32.619Z,3.60
2018-11-10T18:02:00.765Z,3.87
2018-11-10T18:04:28.818Z,4.00
2018-11-10T18:06:56.723Z,4.50
2018-11-10T18:09:24.601Z,3.87
2018-11-10T18:11:52.486Z,4.13
2018-11-10T18:14:20.390Z,3.63
2018-11-10T18:16:48.378Z,4.67
2018-11-10T18:19:16.301Z,4.10
2018-11-10T18:21:44.184Z,4.50
2018-11-10T18:24:12.080Z,7.07
2018-11-10T18:26:40.030Z,9.23
2018-11-10T18:29:08.147Z,10.83
2018-11-10T18:31:36.075Z,37.17
2018-11-10T18:34:04.083Z,12.40
2018-11-10T18:36:31.964Z,7.63
2018-11-10T18:38:59.848Z,5.57
2018-11-10T18:41:27.725Z,4.77
2018-11-10T18:43:55.612Z,6.03
2018-11-10T18:46:23.513Z,5.73
2018-11-10T18:48:51.393Z,5.20
2018-11-10T18:51:20.912Z,6.20
2018-11-10T18:56:34.826Z,4.93
2018-11-10T18:59:02.835Z,5.37
2018-11-10T19:01:30.747Z,5.17
2018-11-10T19:03:58.642Z,5.47
2018-11-10T19:06:26.644Z,5.13
2018-11-10T19:08:54.443Z,5.33
2018-11-10T19:11:22.437Z,4.80
2018-11-10T19:13:50.415Z,4.80
2018-11-10T19:16:18.358Z,5.40
2018-11-10T19:18:46.317Z,5.07
2018-11-10T19:21:14.279Z,5.00
2018-11-10T19:23:42.203Z,5.10
2018-11-10T19:26:10.111Z,6.03
2018-11-10T19:28:38.016Z,5.97
2018-11-10T19:31:05.915Z,30.73
2018-11-10T19:33:33.828Z,7.67
2018-11-10T19:36:01.800Z,5.37
2018-11-10T19:38:29.766Z,5.33
2018-11-10T19:40:57.731Z,4.77
2018-11-10T19:43:25.615Z,5.10
2018-11-10T19:45:53.565Z,4.93
2018-11-10T19:48:21.471Z,4.43
2018-11-10T19:50:49.515Z,5.20
2018-11-10T19:53:17.366Z,4.80
2018-11-10T19:55:45.248Z,5.17
2018-11-10T19:58:13.217Z,4.43
2018-11-10T20:00:41.153Z,4.30
2018-11-10T20:03:08.959Z,4.30
2018-11-10T20:05:36.903Z,3.50
2018-11-10T20:08:04.979Z,4.33
2018-11-10T20:10:32.951Z,4.10
2018-11-10T20:13:00.849Z,3.33
2018-11-10T20:15:28.759Z,3.37
2018-11-10T20:17:57.646Z,3.57
2018-11-10T20:20:25.758Z,3.27
2018-11-10T20:22:55.277Z,3.60
2018-11-10T20:25:24.338Z,2.80
2018-11-10T20:27:52.219Z,3.00
2018-11-10T20:30:20.504Z,3.10
2018-11-10T20:32:48.523Z,3.57
2018-11-10T20:35:16.423Z,3.00
2018-11-10T20:37:44.926Z,2.77
2018-11-10T20:40:13.788Z,3.33
2018-11-10T20:42:41.871Z,2.80
2018-11-10T20:45:13.309Z,3.10
2018-11-10T20:47:41.603Z,3.20
2018-11-10T20:50:09.659Z,2.70
2018-11-10T20:52:37.823Z,2.67
2018-11-10T20:55:06.690Z,2.40
2018-11-10T20:57:35.119Z,2.20
2018-11-10T21:00:03.654Z,2.23
2018-11-10T21:02:31.575Z,2.53
2018-11-10T21:04:59.507Z,2.50
2018-11-10T21:07:27.415Z,2.40
2018-11-10T21:09:55.278Z,2.27
2018-11-10T21:12:23.363Z,2.23
2018-11-10T21:14:51.315Z,2.40
2018-11-10T21:17:19.252Z,1.90
2018-11-10T21:19:48.179Z,2.50
2018-11-10T21:22:16.231Z,2.30
2018-11-10T21:24:44.203Z,2.70
2018-11-10T21:27:12.172Z,2.73
2018-11-10T21:29:40.325Z,2.60
2018-11-10T21:32:08.715Z,2.23
2018-11-10T21:34:36.816Z,2.07
2018-11-10T21:37:05.099Z,2.10
2018-11-10T21:39:33.042Z,2.13
2018-11-10T21:42:00.912Z,1.80
2018-11-10T21:44:28.962Z,2.00
2018-11-10T21:46:56.871Z,2.40
2018-11-10T21:49:25.465Z,2.33
2018-11-10T21:51:54.059Z,1.70
2018-11-10T21:54:23.143Z,2.23
2018-11-10T21:56:51.099Z,2.87
2018-11-10T21:59:19.051Z,2.50
2018-11-10T22:01:47.271Z,2.50
2018-11-10T22:04:15.656Z,2.40
2018-11-10T22:06:43.567Z,2.30
2018-11-10T22:09:12.424Z,2.30
2018-11-10T22:11:41.778Z,2.47
2018-11-10T22:14:09.651Z,2.50
2018-11-10T22:16:37.628Z,2.47
2018-11-10T22:19:05.591Z,2.20
2018-11-10T22:21:33.663Z,2.50
2018-11-10T22:24:01.808Z,2.50
2018-11-10T22:26:29.711Z,3.40
2018-11-10T22:28:57.843Z,2.87
2018-11-10T22:31:26.051Z,2.50
2018-11-10T22:33:54.091Z,3.30
2018-11-10T22:36:21.963Z,3.53
2018-11-10T22:38:49.927Z,3.83
2018-11-10T22:41:17.815Z,3.00
2018-11-10T22:43:45.786Z,3.10
2018-11-10T22:46:13.958Z,2.63
2018-11-10T22:48:41.823Z,2.90
2018-11-10T22:51:12.180Z,3.80
2018-11-10T22:53:40.344Z,3.67
2018-11-10T22:56:08.396Z,3.17
2018-11-10T22:58:36.369Z,3.47
2018-11-10T23:01:06.751Z,3.07
2018-11-10T23:03:35.396Z,3.57
2018-11-10T23:06:03.258Z,3.70
2018-11-10T23:08:31.212Z,3.60
2018-11-10T23:10:59.188Z,4.10
2018-11-10T23:13:27.117Z,4.50
2018-11-10T23:15:55.010Z,3.80
2018-11-10T23:18:22.880Z,3.73
2018-11-10T23:20:50.814Z,4.10
2018-11-10T23:23:18.738Z,4.60
2018-11-10T23:25:47.275Z,4.27
2018-11-10T23:28:15.321Z,4.03
2018-11-10T23:30:43.179Z,4.50
2018-11-10T23:33:11.119Z,4.67
2018-11-10T23:35:39.066Z,4.70
2018-11-10T23:38:07.151Z,4.93
2018-11-10T23:40:35.045Z,6.20
2018-11-10T23:43:02.996Z,6.50
2018-11-10T23:45:30.923Z,6.43
2018-11-10T23:47:58.965Z,6.47
2018-11-10T23:50:26.966Z,6.60
2018-11-10T23:52:54.947Z,7.63
2018-11-10T23:55:22.909Z,7.17
2018-11-10T23:57:50.798Z,7.10
